Time;durP1;ratioP1;P1;durP2;ratioP2;P2;SDS_P1;SDS_P2;PMS_P1;PMS_P2;Temp;Humidity;BMP_temperature;BMP_pressure;BME280_temperature;BME280_humidity;BME280_pressure;Samples;Min_cycle;Max_cycle;Signal;HPM_P1;HPM_P2
2020/12/06 00:02:01;;;;;;;31.17;21.10;;;3.40;97.80;;;;;;5114021;28;20055;-81
2020/12/06 00:04:27;;;;;;;37.70;23.40;;;3.40;97.70;;;;;;5096038;28;20076;-82
2020/12/06 00:06:54;;;;;;;36.65;25.52;;;3.40;97.60;;;;;;5096235;28;20068;-82
2020/12/06 00:09:19;;;;;;;37.08;23.05;;;3.40;97.70;;;;;;5113093;28;20051;-79
2020/12/06 00:11:45;;;;;;;35.03;24.40;;;3.40;97.70;;;;;;5096169;28;20497;-82
2020/12/06 00:14:11;;;;;;;33.03;22.45;;;3.30;97.70;;;;;;5112975;28;20027;-68
2020/12/06 00:16:36;;;;;;;37.22;23.52;;;3.30;97.70;;;;;;5114621;28;20035;-81
2020/12/06 00:19:02;;;;;;;42.58;24.25;;;3.30;97.80;;;;;;5113322;28;20028;-82
2020/12/06 00:21:28;;;;;;;38.45;25.02;;;3.30;97.70;;;;;;5113261;28;20054;-81
2020/12/06 00:23:54;;;;;;;38.25;23.00;;;3.30;97.60;;;;;;5113208;28;20028;-81
2020/12/06 00:26:25;;;;;;;43.55;23.75;;;3.30;97.50;;;;;;5096104;28;20019;-81
2020/12/06 00:28:51;;;;;;;38.53;25.45;;;3.20;97.50;;;;;;5113027;28;20036;-81
2020/12/06 00:31:17;;;;;;;49.33;26.52;;;3.20;97.50;;;;;;5114115;28;20034;-81
2020/12/06 00:33:44;;;;;;;38.72;26.02;;;3.20;97.60;;;;;;5095801;28;20452;-82
2020/12/06 00:36:14;;;;;;;49.38;29.17;;;3.20;97.60;;;;;;5112668;28;20031;-81
2020/12/06 00:38:41;;;;;;;50.95;31.83;;;3.20;97.50;;;;;;5114078;28;20049;-81
2020/12/06 00:41:11;;;;;;;60.55;36.33;;;3.20;97.50;;;;;;5112675;28;20027;-81
2020/12/06 00:43:37;;;;;;;48.67;29.52;;;3.20;97.50;;;;;;5113968;28;20023;-81
2020/12/06 00:46:02;;;;;;;53.95;32.22;;;3.20;97.50;;;;;;5095581;28;20115;-81
2020/12/06 00:48:28;;;;;;;51.40;32.28;;;3.20;97.60;;;;;;5095339;28;20379;-81
2020/12/06 00:50:54;;;;;;;52.40;31.45;;;3.20;97.60;;;;;;5112516;28;20747;-81
2020/12/06 00:53:19;;;;;;;51.97;31.85;;;3.10;97.60;;;;;;5113942;28;20020;-82
2020/12/06 00:55:45;;;;;;;51.38;32.17;;;3.20;97.60;;;;;;5112473;28;20032;-81
2020/12/06 00:58:11;;;;;;;50.40;31.63;;;3.10;97.70;;;;;;5095789;28;20051;-82
2020/12/06 01:00:36;;;;;;;48.85;31.13;;;3.10;97.70;;;;;;5112329;28;20031;-81
2020/12/06 01:03:02;;;;;;;50.47;31.58;;;3.10;97.60;;;;;;5095674;28;20097;-81
2020/12/06 01:05:28;;;;;;;54.55;32.83;;;3.10;97.60;;;;;;5112161;28;20136;-81
2020/12/06 01:07:53;;;;;;;49.95;30.42;;;3.10;97.60;;;;;;5112322;28;20127;-81
2020/12/06 01:10:19;;;;;;;52.63;30.48;;;3.00;97.50;;;;;;5112356;28;20024;-81
2020/12/06 01:12:45;;;;;;;51.38;32.53;;;3.10;97.50;;;;;;5112521;28;20028;-81
2020/12/06 01:15:11;;;;;;;52.45;29.13;;;3.00;97.50;;;;;;5113518;28;20581;-81
2020/12/06 01:17:37;;;;;;;48.42;29.83;;;3.00;97.60;;;;;;5113456;28;20027;-81
2020/12/06 01:20:05;;;;;;;44.50;29.27;;;3.00;97.60;;;;;;5112006;28;20062;-81
2020/12/06 01:22:31;;;;;;;51.17;29.90;;;3.00;97.50;;;;;;5112081;28;20023;-81
2020/12/06 01:24:58;;;;;;;51.45;28.08;;;3.00;97.50;;;;;;5112018;28;20128;-82
2020/12/06 01:27:23;;;;;;;50.28;31.02;;;2.90;97.50;;;;;;5112015;28;20116;-82
2020/12/06 01:29:49;;;;;;;54.38;30.73;;;2.90;97.50;;;;;;5111917;28;20118;-81
2020/12/06 01:32:15;;;;;;;53.22;30.60;;;2.90;97.50;;;;;;5111868;28;20371;-81
2020/12/06 01:34:40;;;;;;;45.20;26.88;;;2.90;97.50;;;;;;5095319;28;20046;-81
2020/12/06 01:37:06;;;;;;;50.20;29.23;;;2.90;97.50;;;;;;5094984;28;20034;-81
2020/12/06 01:39:32;;;;;;;52.10;29.98;;;2.90;97.50;;;;;;5113081;28;20023;-82
2020/12/06 01:41:58;;;;;;;43.35;27.05;;;2.90;97.50;;;;;;5111731;28;20382;-81
2020/12/06 01:44:26;;;;;;;37.33;23.90;;;2.80;97.40;;;;;;5094773;28;20031;-83
2020/12/06 01:46:55;;;;;;;41.47;23.10;;;2.80;97.40;;;;;;5094748;28;20080;-82
2020/12/06 01:49:26;;;;;;;38.47;16.17;;;2.80;97.50;;;;;;5078206;28;20390;-82
2020/12/06 01:51:55;;;;;;;59.58;20.77;;;2.70;97.50;;;;;;5111475;28;20023;-81
2020/12/06 01:54:22;;;;;;;49.70;21.38;;;2.80;97.60;;;;;;5111423;28;20058;-81
2020/12/06 01:56:48;;;;;;;53.85;22.65;;;2.80;97.60;;;;;;5094684;28;20032;-82
2020/12/06 01:59:14;;;;;;;49.45;19.75;;;2.70;97.70;;;;;;5094457;28;20566;-82
2020/12/06 02:01:51;;;;;;;45.75;17.95;;;2.80;97.70;;;;;;5093474;28;20083;-82
2020/12/06 02:04:17;;;;;;;39.25;19.42;;;2.80;97.80;;;;;;5111358;28;20019;-81
2020/12/06 02:06:44;;;;;;;71.88;19.73;;;2.80;97.80;;;;;;5111426;28;20027;-82
2020/12/06 02:09:11;;;;;;;83.93;19.05;;;2.80;97.90;;;;;;5111266;28;20438;-82
2020/12/06 02:11:37;;;;;;;69.78;19.67;;;2.80;97.80;;;;;;5111121;28;20027;-81
2020/12/06 02:14:02;;;;;;;98.97;18.33;;;2.90;97.80;;;;;;5110965;28;20026;-81
2020/12/06 02:16:28;;;;;;;97.53;19.60;;;2.80;97.80;;;;;;5094062;28;20073;-81
2020/12/06 02:18:54;;;;;;;109.43;20.70;;;2.80;97.80;;;;;;5110982;28;20122;-81
2020/12/06 02:21:20;;;;;;;109.63;20.17;;;2.90;97.90;;;;;;5111164;28;20428;-81
2020/12/06 02:23:45;;;;;;;55.45;18.55;;;2.90;97.90;;;;;;5094052;28;20046;-82
2020/12/06 02:26:11;;;;;;;74.30;19.45;;;2.90;97.90;;;;;;5093937;28;20034;-81
2020/12/06 02:28:37;;;;;;;118.28;19.67;;;3.00;97.70;;;;;;5094091;28;20066;-82
2020/12/06 02:31:03;;;;;;;112.70;19.25;;;3.00;97.60;;;;;;5093744;28;20028;-81
2020/12/06 02:33:28;;;;;;;87.30;18.02;;;3.00;97.60;;;;;;5110823;28;20038;-81
2020/12/06 02:35:54;;;;;;;107.97;18.83;;;3.00;97.50;;;;;;5110768;28;20027;-81
2020/12/06 02:38:20;;;;;;;96.55;18.95;;;2.90;97.40;;;;;;5110652;28;20023;-82
2020/12/06 02:40:46;;;;;;;68.43;17.63;;;2.90;97.40;;;;;;5111852;28;20055;-82
2020/12/06 02:43:11;;;;;;;76.00;18.00;;;2.90;97.40;;;;;;5110487;28;20268;-81
2020/12/06 02:45:37;;;;;;;136.13;20.73;;;2.90;97.30;;;;;;5093643;28;20066;-82
2020/12/06 02:48:03;;;;;;;90.00;18.88;;;2.90;97.20;;;;;;5093629;28;20050;-82
2020/12/06 02:50:28;;;;;;;84.20;19.85;;;2.80;97.20;;;;;;5111830;28;20032;-82
2020/12/06 02:52:57;;;;;;;85.78;20.55;;;2.80;97.10;;;;;;5110536;28;20020;-81
2020/12/06 02:55:25;;;;;;;61.37;19.70;;;2.80;97.20;;;;;;5110468;28;20077;-81
2020/12/06 02:57:51;;;;;;;91.72;20.83;;;2.80;97.10;;;;;;5110395;28;20028;-81
2020/12/06 03:00:16;;;;;;;75.63;20.40;;;2.70;97.00;;;;;;5110504;28;20032;-83
2020/12/06 03:02:42;;;;;;;92.32;19.17;;;2.70;97.00;;;;;;5093411;28;20052;-80
2020/12/06 03:05:08;;;;;;;83.88;19.98;;;2.60;97.00;;;;;;5093297;28;20027;-81
2020/12/06 03:07:33;;;;;;;80.20;19.10;;;2.60;97.00;;;;;;5110382;28;20062;-81
2020/12/06 03:09:59;;;;;;;101.20;18.65;;;2.60;97.10;;;;;;5111524;28;20027;-82
2020/12/06 03:12:25;;;;;;;93.55;17.27;;;2.60;97.00;;;;;;5076173;28;20501;-82
2020/12/06 03:14:50;;;;;;;106.95;19.52;;;2.50;97.00;;;;;;5093266;28;20390;-81
2020/12/06 03:17:16;;;;;;;98.25;18.83;;;2.50;96.90;;;;;;5111560;28;20110;-81
2020/12/06 03:19:41;;;;;;;100.10;18.50;;;2.50;97.00;;;;;;5093265;28;20032;-81
2020/12/06 03:22:07;;;;;;;55.92;16.90;;;2.50;97.00;;;;;;5111404;28;20302;-82
2020/12/06 03:24:33;;;;;;;76.93;18.83;;;2.50;96.90;;;;;;5110160;28;20128;-81
2020/12/06 03:26:58;;;;;;;93.25;17.50;;;2.40;96.90;;;;;;5076433;28;20027;-80
2020/12/06 03:29:24;;;;;;;46.03;17.67;;;2.40;97.00;;;;;;5110398;28;20389;-81
2020/12/06 03:31:50;;;;;;;61.03;17.75;;;2.40;96.90;;;;;;5093081;28;20609;-81
2020/12/06 03:34:15;;;;;;;53.10;15.10;;;2.40;97.00;;;;;;5093054;28;20023;-81
2020/12/06 03:36:41;;;;;;;80.38;17.98;;;2.40;97.00;;;;;;5093106;28;20028;-81
2020/12/06 03:39:06;;;;;;;49.88;15.23;;;2.50;97.00;;;;;;5093185;28;20085;-81
2020/12/06 03:41:32;;;;;;;47.90;17.48;;;2.50;97.00;;;;;;5093140;28;20035;-80
2020/12/06 03:43:58;;;;;;;41.28;15.55;;;2.50;97.00;;;;;;5092948;28;20035;-81
2020/12/06 03:46:23;;;;;;;45.15;15.82;;;2.50;97.10;;;;;;5110083;28;20059;-80
2020/12/06 03:48:49;;;;;;;47.42;15.90;;;2.60;97.00;;;;;;5109654;28;20040;-81
2020/12/06 03:51:15;;;;;;;39.20;15.48;;;2.60;97.00;;;;;;5111062;28;20111;-81
2020/12/06 03:53:40;;;;;;;52.30;14.98;;;2.70;97.10;;;;;;5076003;28;20049;-82
2020/12/06 03:56:06;;;;;;;60.70;17.25;;;2.70;97.10;;;;;;5093072;28;20028;-81
2020/12/06 03:58:32;;;;;;;38.40;14.35;;;2.70;97.10;;;;;;5092991;28;20020;-81
2020/12/06 04:00:57;;;;;;;67.55;16.48;;;2.80;97.10;;;;;;5109779;28;20052;-81
2020/12/06 04:03:23;;;;;;;86.38;17.08;;;2.80;97.00;;;;;;5109808;28;20076;-81
2020/12/06 04:05:49;;;;;;;117.80;18.25;;;2.80;96.90;;;;;;5109633;28;20028;-81
2020/12/06 04:08:14;;;;;;;112.38;17.83;;;2.80;97.00;;;;;;5109773;28;20385;-81
2020/12/06 04:10:40;;;;;;;169.45;20.83;;;2.80;97.00;;;;;;5092628;28;20030;-82
2020/12/06 04:13:05;;;;;;;78.53;18.00;;;2.90;97.20;;;;;;5092708;28;20497;-81
2020/12/06 04:15:31;;;;;;;74.38;14.95;;;2.90;97.30;;;;;;5075810;28;20027;-82
2020/12/06 04:17:57;;;;;;;59.70;16.25;;;2.90;97.20;;;;;;5092861;28;20024;-80
2020/12/06 04:20:22;;;;;;;54.28;13.85;;;2.90;97.00;;;;;;5075807;28;20032;-81
2020/12/06 04:22:48;;;;;;;52.33;14.40;;;2.90;96.90;;;;;;5092835;28;20070;-80
2020/12/06 04:25:14;;;;;;;57.65;14.70;;;2.90;97.10;;;;;;5095091;28;20038;-81
2020/12/06 04:27:39;;;;;;;54.92;13.10;;;2.80;96.90;;;;;;5079325;28;20094;-81
2020/12/06 04:30:05;;;;;;;76.95;15.25;;;2.80;96.90;;;;;;5096198;28;20165;-82
2020/12/06 04:32:31;;;;;;;59.22;13.32;;;2.80;96.90;;;;;;5096152;28;20083;-81
2020/12/06 04:34:57;;;;;;;35.72;13.18;;;2.80;97.10;;;;;;5079394;28;20023;-80
2020/12/06 04:37:22;;;;;;;68.40;14.07;;;2.80;96.90;;;;;;5113138;28;20046;-81
2020/12/06 04:39:48;;;;;;;31.20;13.10;;;2.80;96.90;;;;;;5079146;28;20122;-79
2020/12/06 04:42:15;;;;;;;31.25;12.27;;;2.80;96.80;;;;;;5095942;28;20031;-79
2020/12/06 04:44:40;;;;;;;50.45;12.93;;;2.70;96.80;;;;;;5114356;28;20034;-79
2020/12/06 04:47:09;;;;;;;50.75;12.85;;;2.70;96.90;;;;;;5079096;28;20118;-79
2020/12/06 04:49:50;;;;;;;59.35;13.10;;;2.70;96.80;;;;;;5112754;28;20035;-79
2020/12/06 04:52:25;;;;;;;42.72;11.75;;;2.70;96.80;;;;;;5112837;28;20034;-78
2020/12/06 04:54:58;;;;;;;54.45;12.70;;;2.70;96.70;;;;;;5112788;28;20448;-79
2020/12/06 04:57:27;;;;;;;53.55;13.32;;;2.70;96.70;;;;;;5112884;28;20031;-78
2020/12/06 05:00:00;;;;;;;51.90;12.68;;;2.60;96.60;;;;;;5096180;28;20024;-79
2020/12/06 05:02:30;;;;;;;82.63;14.18;;;2.60;96.70;;;;;;5112597;28;20460;-78
2020/12/06 05:04:58;;;;;;;;;;;2.70;96.80;;;;;;5112910;28;20027;-80
2020/12/06 05:07:27;;;;;;;60.80;11.93;;;2.70;96.90;;;;;;5112384;28;20296;-79
2020/12/06 05:09:52;;;;;;;86.73;14.00;;;2.70;96.80;;;;;;5112429;28;20020;-79
2020/12/06 05:12:19;;;;;;;78.72;12.40;;;2.70;96.70;;;;;;5112433;28;20281;-79
2020/12/06 05:14:44;;;;;;;79.80;12.73;;;2.70;96.60;;;;;;5095453;28;20027;-78
2020/12/06 05:17:12;;;;;;;63.83;12.65;;;2.70;96.70;;;;;;5095178;28;20042;-78
2020/12/06 05:19:37;;;;;;;103.18;14.93;;;2.70;96.80;;;;;;5112045;28;20470;-79
2020/12/06 05:22:03;;;;;;;70.90;12.85;;;2.70;96.80;;;;;;5112305;28;20100;-79
2020/12/06 05:24:30;;;;;;;96.55;13.30;;;2.70;96.70;;;;;;5095130;28;20382;-78
2020/12/06 05:26:56;;;;;;;73.47;11.48;;;2.70;96.80;;;;;;5112173;28;20431;-78
2020/12/06 05:29:21;;;;;;;88.80;12.52;;;2.70;96.90;;;;;;5112033;28;20027;-80
2020/12/06 05:31:47;;;;;;;55.45;11.45;;;2.80;97.00;;;;;;5112022;28;20031;-80
2020/12/06 05:34:13;;;;;;;45.78;11.13;;;2.70;96.70;;;;;;5111884;28;20024;-79
2020/12/06 05:36:42;;;;;;;58.20;10.82;;;2.70;96.70;;;;;;5111689;28;20024;-79
2020/12/06 05:39:08;;;;;;;69.43;11.88;;;2.70;96.60;;;;;;5094936;28;20030;-79
2020/12/06 05:41:34;;;;;;;44.42;10.52;;;2.70;96.70;;;;;;5111622;28;20054;-79
2020/12/06 05:44:06;;;;;;;30.42;10.23;;;2.60;96.60;;;;;;5078133;28;20127;-80
2020/12/06 05:46:36;;;;;;;52.08;10.07;;;2.60;96.50;;;;;;5078513;28;20039;-79
2020/12/06 05:49:05;;;;;;;28.50;10.43;;;2.50;96.40;;;;;;5112927;28;20485;-79
2020/12/06 05:51:32;;;;;;;29.80;9.55;;;2.50;96.60;;;;;;5111715;28;20032;-78
2020/12/06 05:53:58;;;;;;;55.70;11.25;;;2.60;96.80;;;;;;5112939;28;20262;-79
2020/12/06 05:56:24;;;;;;;34.50;10.07;;;2.60;96.80;;;;;;5111555;28;20479;-79
2020/12/06 05:58:51;;;;;;;40.58;10.88;;;2.60;96.90;;;;;;5094453;28;20027;-79
2020/12/06 06:01:18;;;;;;;62.20;11.02;;;2.70;96.90;;;;;;5111118;28;20047;-79
2020/12/06 06:03:47;;;;;;;50.60;10.13;;;2.70;96.90;;;;;;5111370;28;20027;-78
2020/12/06 06:06:24;;;;;;;60.60;12.18;;;2.70;96.70;;;;;;5112718;28;20107;-78
2020/12/06 06:08:53;;;;;;;66.68;10.73;;;2.70;96.50;;;;;;5111300;28;20122;-79
2020/12/06 06:11:54;;;;;;;52.92;10.13;;;2.70;96.50;;;;;;5112425;28;20027;-78
2020/12/06 06:14:21;;;;;;;70.53;9.48;;;2.70;96.50;;;;;;5059675;28;20031;-78
2020/12/06 06:16:48;;;;;;;79.18;10.95;;;2.70;96.50;;;;;;5094257;28;20085;-80
2020/12/06 06:19:15;;;;;;;60.28;10.40;;;2.70;96.60;;;;;;5111072;28;20051;-79
2020/12/06 06:21:43;;;;;;;121.07;12.30;;;2.70;96.60;;;;;;5111155;28;20385;-78
2020/12/06 06:24:12;;;;;;;116.57;11.88;;;2.70;96.60;;;;;;5093824;28;20416;-79
2020/12/06 06:26:42;;;;;;;82.38;10.45;;;2.60;96.50;;;;;;5110795;28;20024;-79
2020/12/06 06:29:14;;;;;;;;;;;2.60;96.40;;;;;;5111284;28;20028;-81
2020/12/06 06:31:41;;;;;;;97.55;9.18;;;2.60;96.50;;;;;;5110650;28;19907;-79
2020/12/06 06:34:07;;;;;;;49.92;9.93;;;2.60;96.40;;;;;;5094036;28;20044;-79
2020/12/06 06:36:34;;;;;;;75.68;9.50;;;2.50;96.30;;;;;;5093792;28;20059;-79
2020/12/06 06:39:02;;;;;;;111.22;9.77;;;2.50;96.30;;;;;;5110706;28;20034;-79
2020/12/06 06:41:28;;;;;;;215.43;13.32;;;2.50;96.30;;;;;;5093688;28;20032;-78
2020/12/06 06:44:05;;;;;;;129.95;10.30;;;2.40;96.20;;;;;;5111834;28;20110;-78
2020/12/06 06:46:35;;;;;;;125.63;11.45;;;2.40;96.00;;;;;;5110086;28;20031;-78
2020/12/06 06:49:12;;;;;;;141.55;10.30;;;2.30;96.00;;;;;;5110769;28;20386;-80
2020/12/06 06:51:39;;;;;;;96.95;9.27;;;2.30;96.00;;;;;;5110343;28;20028;-80
2020/12/06 06:54:06;;;;;;;87.03;10.88;;;2.20;96.00;;;;;;5110361;28;20059;-79
2020/12/06 06:56:48;;;;;;;133.57;11.30;;;2.10;96.00;;;;;;5111770;28;20020;-79
2020/12/06 06:59:14;;;;;;;75.60;12.77;;;2.10;96.20;;;;;;5110410;28;20031;-79
2020/12/06 07:01:49;;;;;;;96.07;10.30;;;2.10;96.30;;;;;;5093402;28;20055;-79
2020/12/06 07:04:19;;;;;;;101.03;9.95;;;2.10;96.40;;;;;;5110130;28;20089;-79
2020/12/06 07:06:50;;;;;;;86.55;11.90;;;2.10;96.40;;;;;;5110262;28;20057;-79
2020/12/06 07:09:25;;;;;;;69.20;10.60;;;2.10;96.30;;;;;;5110291;28;20024;-80
2020/12/06 07:11:56;;;;;;;101.88;11.85;;;2.10;96.30;;;;;;5110163;28;20523;-78
2020/12/06 07:14:27;;;;;;;135.65;11.35;;;2.10;96.30;;;;;;5111465;28;20059;-79
2020/12/06 07:16:55;;;;;;;112.88;10.32;;;2.10;96.30;;;;;;5111565;28;20373;-79
2020/12/06 07:19:21;;;;;;;96.47;10.93;;;2.00;96.20;;;;;;5110219;28;20069;-78
2020/12/06 07:21:48;;;;;;;65.45;9.52;;;2.00;96.10;;;;;;5110170;28;20028;-78
2020/12/06 07:24:16;;;;;;;91.50;11.60;;;1.90;96.00;;;;;;5110074;28;20543;-79
2020/12/06 07:26:43;;;;;;;118.40;10.25;;;1.90;96.10;;;;;;5111464;28;20028;-79
2020/12/06 07:29:09;;;;;;;66.65;9.57;;;1.90;96.20;;;;;;5111298;28;20051;-78
2020/12/06 07:31:36;;;;;;;96.85;10.82;;;1.80;96.30;;;;;;5093154;28;20423;-79
2020/12/06 07:34:02;;;;;;;111.15;10.95;;;1.90;96.40;;;;;;5109942;28;20435;-79
2020/12/06 07:36:36;;;;;;;75.47;11.23;;;1.90;96.40;;;;;;5093196;28;20032;-78
2020/12/06 07:39:15;;;;;;;82.72;10.32;;;1.90;96.50;;;;;;5111274;28;20024;-78
2020/12/06 07:41:49;;;;;;;64.05;10.05;;;1.90;96.50;;;;;;5109795;28;20110;-80
2020/12/06 07:44:15;;;;;;;82.40;9.98;;;2.00;96.60;;;;;;5109912;28;20035;-79
2020/12/06 07:46:41;;;;;;;80.60;10.82;;;2.00;96.50;;;;;;5109913;28;20051;-79
2020/12/06 07:49:07;;;;;;;57.42;9.90;;;2.00;96.20;;;;;;5109840;28;20077;-79
2020/12/06 07:51:33;;;;;;;79.13;10.07;;;2.00;96.30;;;;;;5111067;28;20032;-80
2020/12/06 07:54:02;;;;;;;109.80;11.82;;;2.00;96.30;;;;;;5111011;28;20462;-79
2020/12/06 07:56:31;;;;;;;188.88;13.82;;;2.00;96.30;;;;;;5109829;28;20024;-78
2020/12/06 07:59:24;;;;;;;88.47;10.60;;;2.00;96.40;;;;;;5110431;28;20310;-81
2020/12/06 08:01:52;;;;;;;103.40;10.93;;;1.90;96.50;;;;;;5113618;28;20116;-78
2020/12/06 08:04:27;;;;;;;125.30;11.82;;;2.00;96.50;;;;;;5113503;28;20358;-80
2020/12/06 08:06:59;;;;;;;53.00;9.95;;;2.00;96.50;;;;;;5113619;28;20031;-78
2020/12/06 08:09:29;;;;;;;79.88;9.07;;;2.10;96.50;;;;;;5113583;28;20568;-79
2020/12/06 08:11:55;;;;;;;;;;;2.10;96.40;;;;;;5114606;28;20047;-79
2020/12/06 08:14:21;;;;;;;41.75;8.85;;;2.20;96.40;;;;;;5113185;28;19908;-79
2020/12/06 08:17:01;;;;;;;67.53;11.23;;;2.20;96.30;;;;;;5114608;28;20202;-78
2020/12/06 08:19:28;;;;;;;56.45;9.63;;;2.20;96.40;;;;;;5096345;28;20080;-79
2020/12/06 08:22:03;;;;;;;61.05;9.98;;;2.20;96.40;;;;;;5114571;28;20035;-78
2020/12/06 08:24:30;;;;;;;60.70;9.32;;;2.30;96.50;;;;;;5096207;28;20044;-79
2020/12/06 08:26:57;;;;;;;65.35;9.77;;;2.30;96.50;;;;;;5096137;28;20051;-79
2020/12/06 08:29:37;;;;;;;56.47;9.27;;;2.30;96.40;;;;;;5113240;28;20030;-78
2020/12/06 08:32:04;;;;;;;78.50;9.52;;;2.30;96.40;;;;;;5112700;28;20032;-79
2020/12/06 08:34:30;;;;;;;61.85;8.48;;;2.30;96.20;;;;;;5112867;28;20065;-79
2020/12/06 08:37:11;;;;;;;50.05;8.65;;;2.20;96.20;;;;;;5113024;28;20019;-78
2020/12/06 08:39:37;;;;;;;105.63;9.48;;;2.30;96.20;;;;;;5113067;28;20434;-79
2020/12/06 08:42:12;;;;;;;99.03;10.00;;;2.20;96.10;;;;;;5112680;28;20055;-78
2020/12/06 08:44:57;;;;;;;82.18;10.20;;;2.10;96.10;;;;;;5114100;28;20015;-78
2020/12/06 08:47:24;;;;;;;74.05;11.20;;;2.10;96.30;;;;;;5113978;28;20351;-78
2020/12/06 08:50:14;;;;;;;89.75;8.98;;;2.10;96.40;;;;;;5112586;28;20028;-79
2020/12/06 08:52:40;;;;;;;;;;;2.10;96.30;;;;;;5112987;28;20027;-80
2020/12/06 08:55:24;;;;;;;53.42;9.38;;;2.10;96.10;;;;;;5112484;28;19910;-78
2020/12/06 08:57:50;;;;;;;54.85;9.13;;;2.10;96.00;;;;;;5112880;28;20062;-78
2020/12/06 09:00:16;;;;;;;75.70;9.32;;;2.00;96.10;;;;;;5112586;28;20377;-78
2020/12/06 09:02:41;;;;;;;86.00;8.77;;;2.00;96.30;;;;;;5112269;28;20143;-78
2020/12/06 09:05:07;;;;;;;54.00;9.80;;;2.00;96.30;;;;;;5095258;28;20031;-78
2020/12/06 09:07:33;;;;;;;62.70;8.80;;;2.10;96.40;;;;;;5113802;28;20051;-78
2020/12/06 09:09:58;;;;;;;77.05;8.52;;;2.10;96.60;;;;;;5095176;28;20103;-80
2020/12/06 09:12:24;;;;;;;72.97;9.10;;;2.20;96.50;;;;;;5112617;28;20119;-78
2020/12/06 09:14:50;;;;;;;138.48;11.05;;;2.30;96.50;;;;;;5095579;28;20032;-78
2020/12/06 09:17:15;;;;;;;80.65;9.15;;;2.30;96.40;;;;;;5095687;28;20023;-79
2020/12/06 09:19:42;;;;;;;102.38;11.05;;;2.30;96.30;;;;;;5113862;28;20028;-78
2020/12/06 09:22:07;;;;;;;76.45;9.25;;;2.30;96.20;;;;;;5112249;28;20024;-80
2020/12/06 09:24:33;;;;;;;66.20;7.93;;;2.30;96.20;;;;;;5095106;28;20479;-78
2020/12/06 09:26:59;;;;;;;66.03;8.07;;;2.30;96.20;;;;;;5113358;28;20075;-78
2020/12/06 09:29:24;;;;;;;85.57;9.13;;;2.30;96.20;;;;;;5111883;28;20483;-77
2020/12/06 09:31:50;;;;;;;78.28;8.90;;;2.30;96.40;;;;;;5094760;28;20385;-79
2020/12/06 09:34:16;;;;;;;68.43;9.23;;;2.30;96.40;;;;;;5094317;28;20062;-78
2020/12/06 09:36:43;;;;;;;66.72;8.68;;;2.40;96.40;;;;;;5094206;28;20024;-78
2020/12/06 09:39:09;;;;;;;49.83;8.23;;;2.40;96.50;;;;;;5111884;28;20310;-78
2020/12/06 09:41:35;;;;;;;42.92;8.23;;;2.40;96.40;;;;;;5094621;28;20038;-79
2020/12/06 09:44:04;;;;;;;46.70;7.40;;;2.50;96.50;;;;;;5094450;28;20035;-78
2020/12/06 09:46:30;;;;;;;62.88;7.82;;;2.50;96.50;;;;;;5078677;28;20522;-78
2020/12/06 09:48:56;;;;;;;62.70;7.35;;;2.60;96.60;;;;;;5111323;28;20102;-79
2020/12/06 09:51:22;;;;;;;64.55;8.05;;;2.70;96.60;;;;;;5111183;28;20031;-78
2020/12/06 09:53:49;;;;;;;51.17;8.05;;;2.70;96.40;;;;;;5110026;28;20028;-79
2020/12/06 09:56:15;;;;;;;53.90;7.90;;;2.70;96.30;;;;;;5110080;28;20445;-78
2020/12/06 09:58:41;;;;;;;45.75;7.07;;;2.70;96.30;;;;;;5110925;28;20102;-78
2020/12/06 10:01:06;;;;;;;90.00;8.68;;;2.70;96.40;;;;;;5093847;28;20116;-78
2020/12/06 10:03:32;;;;;;;75.85;8.23;;;2.70;96.40;;;;;;5076933;28;20385;-79
2020/12/06 10:05:58;;;;;;;54.42;7.15;;;2.70;96.40;;;;;;5110763;28;20038;-79
2020/12/06 10:08:23;;;;;;;51.42;7.20;;;2.70;96.40;;;;;;5093985;28;20032;-78
2020/12/06 10:10:49;;;;;;;39.42;7.63;;;2.70;96.30;;;;;;5093875;28;20237;-78
2020/12/06 10:13:15;;;;;;;94.57;9.35;;;2.70;96.30;;;;;;5094118;28;20069;-78
2020/12/06 10:15:42;;;;;;;54.45;8.50;;;2.70;96.30;;;;;;5110775;28;20387;-79
2020/12/06 10:18:09;;;;;;;57.95;8.60;;;2.70;96.40;;;;;;5094232;28;20023;-78
2020/12/06 10:20:34;;;;;;;82.53;9.13;;;2.80;96.50;;;;;;5094017;28;20043;-79
2020/12/06 10:23:00;;;;;;;109.45;8.85;;;2.80;96.40;;;;;;5110084;28;20032;-79
2020/12/06 10:25:26;;;;;;;64.93;7.38;;;2.80;96.40;;;;;;5111863;28;20062;-79
2020/12/06 10:27:51;;;;;;;32.25;8.10;;;2.80;96.40;;;;;;5076776;28;20032;-79
2020/12/06 10:30:17;;;;;;;81.53;8.07;;;2.80;96.40;;;;;;5110159;28;20478;-79
2020/12/06 10:32:44;;;;;;;60.38;8.23;;;2.90;96.50;;;;;;5110316;28;20023;-78
2020/12/06 10:35:09;;;;;;;63.33;7.55;;;2.90;96.40;;;;;;5111642;28;20028;-80
2020/12/06 10:37:35;;;;;;;49.80;7.28;;;2.90;96.30;;;;;;5111768;28;20031;-79
2020/12/06 10:40:01;;;;;;;41.45;6.80;;;3.00;96.40;;;;;;5110066;28;20382;-78
2020/12/06 10:42:26;;;;;;;72.68;7.22;;;3.00;96.40;;;;;;5110028;28;20024;-78
2020/12/06 10:44:53;;;;;;;38.45;7.28;;;3.00;96.40;;;;;;5110164;28;20499;-78
2020/12/06 10:47:19;;;;;;;54.42;7.45;;;3.00;96.40;;;;;;5111619;28;20406;-79
2020/12/06 10:49:45;;;;;;;49.45;6.80;;;3.00;96.40;;;;;;5109947;28;20032;-79
2020/12/06 10:52:11;;;;;;;48.47;7.68;;;3.10;96.40;;;;;;5109766;28;20023;-78
2020/12/06 10:54:38;;;;;;;33.70;7.47;;;3.10;96.40;;;;;;5092531;28;20126;-79
2020/12/06 10:57:04;;;;;;;31.60;6.85;;;3.10;96.40;;;;;;5092915;28;20026;-78
2020/12/06 10:59:30;;;;;;;67.55;6.68;;;3.20;96.50;;;;;;5109497;28;20073;-81
2020/12/06 11:01:59;;;;;;;53.40;7.47;;;3.20;96.50;;;;;;5111007;28;20122;-78
2020/12/06 11:04:25;;;;;;;87.90;8.30;;;3.30;96.50;;;;;;5110000;28;20379;-80
2020/12/06 11:06:50;;;;;;;60.63;7.45;;;3.30;96.60;;;;;;5092768;28;20032;-79
2020/12/06 11:09:16;;;;;;;67.85;8.27;;;3.40;96.50;;;;;;5111235;28;20385;-67
2020/12/06 11:11:42;;;;;;;61.03;7.47;;;3.40;96.50;;;;;;5111155;28;20320;-79
2020/12/06 11:14:07;;;;;;;67.43;8.27;;;3.50;96.40;;;;;;5109805;28;20103;-78
2020/12/06 11:16:33;;;;;;;72.47;11.73;;;3.50;96.40;;;;;;5092956;28;20031;-78
2020/12/06 11:18:59;;;;;;;22.30;8.38;;;3.60;96.60;;;;;;5109804;28;20043;-79
2020/12/06 11:21:24;;;;;;;36.42;8.70;;;3.70;96.60;;;;;;5092561;28;20035;-78
2020/12/06 11:23:50;;;;;;;27.38;10.23;;;3.70;96.60;;;;;;5110874;28;20326;-78
2020/12/06 11:26:17;;;;;;;56.08;10.05;;;3.80;96.60;;;;;;5109603;28;20024;-79
2020/12/06 11:28:47;;;;;;;42.47;7.90;;;3.90;96.70;;;;;;5109343;28;20054;-78
2020/12/06 11:31:13;;;;;;;43.33;8.23;;;4.00;96.30;;;;;;5092312;28;20550;-80
2020/12/06 11:33:39;;;;;;;44.35;7.18;;;4.00;96.20;;;;;;5111329;28;20394;-80
2020/12/06 11:36:07;;;;;;;20.52;8.40;;;3.90;96.10;;;;;;5114065;28;20049;-78
2020/12/06 11:38:33;;;;;;;29.92;7.57;;;3.90;96.10;;;;;;5113587;28;20393;-79
2020/12/06 11:40:59;;;;;;;83.88;11.77;;;3.90;96.00;;;;;;5079680;28;20028;-79
2020/12/06 11:43:25;;;;;;;43.67;10.40;;;3.90;96.00;;;;;;5113144;28;20036;-79
2020/12/06 11:45:50;;;;;;;35.45;9.70;;;3.90;96.00;;;;;;5112877;28;20020;-79
2020/12/06 11:48:16;;;;;;;19.63;8.23;;;3.90;96.20;;;;;;5113644;28;20020;-78
2020/12/06 11:50:42;;;;;;;19.88;9.10;;;3.90;96.30;;;;;;5112909;28;20150;-77
2020/12/06 11:53:08;;;;;;;60.58;12.10;;;4.00;96.50;;;;;;5114538;28;20027;-78
2020/12/06 11:55:33;;;;;;;34.78;14.32;;;4.10;96.60;;;;;;5096201;28;20032;-78
2020/12/06 11:57:59;;;;;;;26.90;10.07;;;4.20;96.60;;;;;;5113947;28;20066;-78
2020/12/06 12:00:25;;;;;;;56.97;11.70;;;4.40;96.40;;;;;;5112492;28;20035;-78
2020/12/06 12:02:50;;;;;;;21.00;9.52;;;4.40;96.10;;;;;;5112598;28;20143;-78
2020/12/06 12:05:16;;;;;;;28.52;9.65;;;4.30;96.00;;;;;;5078663;28;20339;-77
2020/12/06 12:07:42;;;;;;;51.97;11.10;;;4.40;96.10;;;;;;5114381;28;20028;-78
2020/12/06 12:10:08;;;;;;;36.70;11.75;;;4.40;96.20;;;;;;5114489;28;20108;-79
2020/12/06 12:12:35;;;;;;;50.13;9.25;;;4.40;96.30;;;;;;5112892;28;20043;-79
2020/12/06 12:15:01;;;;;;;43.17;8.30;;;4.50;96.40;;;;;;5095667;28;20378;-79
2020/12/06 12:17:27;;;;;;;51.55;7.25;;;4.50;96.30;;;;;;5112417;28;20062;-79
2020/12/06 12:19:52;;;;;;;45.10;9.05;;;4.60;96.10;;;;;;5114605;28;20427;-79
2020/12/06 12:22:20;;;;;;;42.10;10.07;;;4.60;95.90;;;;;;5096378;28;20043;-78
2020/12/06 12:24:48;;;;;;;45.65;7.95;;;4.50;95.80;;;;;;5112933;28;20036;-78
2020/12/06 12:27:13;;;;;;;61.55;10.70;;;4.50;95.70;;;;;;5112849;28;20023;-78
2020/12/06 12:29:39;;;;;;;82.93;9.48;;;4.40;95.70;;;;;;5078953;28;20067;-78
2020/12/06 12:32:05;;;;;;;66.88;8.48;;;4.40;95.70;;;;;;5112893;28;20418;-79
2020/12/06 12:34:31;;;;;;;58.55;8.23;;;4.40;95.70;;;;;;5112690;28;20035;-79
2020/12/06 12:36:56;;;;;;;20.75;8.02;;;4.30;95.70;;;;;;5095849;28;20034;-78
2020/12/06 12:39:22;;;;;;;85.07;9.20;;;4.30;95.70;;;;;;5095567;28;20084;-78
2020/12/06 12:41:50;;;;;;;26.42;7.93;;;4.30;95.80;;;;;;5095324;28;20172;-78